Time;durP1;ratioP1;P1;durP2;ratioP2;P2;SDS_P1;SDS_P2;PMS_P1;PMS_P2;Temp;Humidity;BMP_temperature;BMP_pressure;BME280_temperature;BME280_humidity;BME280_pressure;Samples;Min_cycle;Max_cycle;Signal;HPM_P1;HPM_P2
2023/01/02 00:00:05;;;;;;;;;6.67;5.00;;;;;14.86;67.97;100829.13;5037157;28;45418;-66
2023/01/02 00:02:31;;;;;;;;;5.67;5.00;;;;;14.85;67.89;100816.81;5049081;28;45557;-66
2023/01/02 00:04:56;;;;;;;;;7.67;5.33;;;;;14.91;68.05;100826.44;5026299;28;45580;-66
2023/01/02 00:07:22;;;;;;;;;7.00;4.67;;;;;14.90;68.17;100841.38;5051571;28;45371;-68
2023/01/02 00:09:47;;;;;;;;;5.00;4.33;;;;;14.83;68.31;100829.19;5055778;28;45443;-66
2023/01/02 00:12:13;;;;;;;;;6.00;4.67;;;;;14.88;68.47;100842.28;5057885;28;45484;-67
2023/01/02 00:14:38;;;;;;;;;3.67;3.00;;;;;14.80;68.38;100830.06;5053120;28;45451;-67
2023/01/02 00:17:04;;;;;;;;;14.00;11.33;;;;;14.81;68.89;100841.50;5055175;28;46400;-66
2023/01/02 00:19:30;;;;;;;;;239.25;213.25;;;;;14.86;68.83;100844.94;5057583;28;45400;-66
2023/01/02 00:21:56;;;;;;;;;916.40;655.80;;;;;14.81;68.99;100836.22;5038752;28;45789;-68
2023/01/02 00:24:22;;;;;;;;;192.25;138.25;;;;;14.83;68.51;100842.38;5054247;28;45440;-66
2023/01/02 00:26:48;;;;;;;;;48.75;30.75;;;;;14.81;69.99;100855.56;5059442;28;45752;-67
2023/01/02 00:29:13;;;;;;;;;15.25;9.00;;;;;14.73;69.82;100838.94;5038281;28;45496;-66
2023/01/02 00:31:39;;;;;;;;;10.00;8.67;;;;;14.82;69.68;100849.38;5037036;28;45773;-66
2023/01/02 00:34:04;;;;;;;;;5.00;5.00;;;;;14.80;70.01;100856.44;5054820;28;45600;-68
2023/01/02 00:36:30;;;;;;;;;7.00;4.33;;;;;14.75;69.92;100849.50;5056165;28;45785;-65
2023/01/02 00:38:56;;;;;;;;;5.00;4.33;;;;;14.82;69.92;100843.25;5056772;28;45503;-68
2023/01/02 00:41:22;;;;;;;;;4.00;4.00;;;;;14.77;70.25;100835.38;5059310;28;45394;-69
2023/01/02 00:43:47;;;;;;;;;3.67;3.67;;;;;14.82;70.08;100844.09;5038637;28;45659;-67
2023/01/02 00:46:14;;;;;;;;;6.00;3.67;;;;;14.84;70.15;100852.00;5052315;28;46050;-68
2023/01/02 00:48:40;;;;;;;;;3.00;3.00;;;;;14.82;70.31;100861.69;5056348;28;45630;-67
2023/01/02 00:51:05;;;;;;;;;5.33;3.00;;;;;14.72;70.66;100839.00;5040834;28;45432;-67
2023/01/02 00:53:31;;;;;;;;;4.00;4.00;;;;;14.69;70.90;100847.81;5057356;28;45432;-68
2023/01/02 00:55:56;;;;;;;;;4.00;4.00;;;;;14.64;71.06;100847.00;5033709;28;46491;-69
2023/01/02 00:58:22;;;;;;;;;3.67;3.67;;;;;14.67;71.57;100846.97;5052886;28;45410;-67
2023/01/02 01:00:49;;;;;;;;;3.00;3.00;;;;;14.63;71.48;100847.88;5055499;28;45386;-67
2023/01/02 01:03:15;;;;;;;;;3.00;3.00;;;;;14.50;71.59;100830.44;5055734;28;45422;-68
2023/01/02 01:05:40;;;;;;;;;4.00;4.00;;;;;14.61;71.90;100847.03;5035861;28;47710;-68
2023/01/02 01:08:06;;;;;;;;;5.67;3.33;;;;;14.62;72.41;100854.94;5051619;28;45516;-68
2023/01/02 01:10:35;;;;;;;;;6.00;3.00;;;;;14.63;71.93;100859.28;5019435;28;45821;-66
2023/01/02 01:13:01;;;;;;;;;4.00;2.00;;;;;14.57;72.19;100838.31;5048417;28;45839;-67
2023/01/02 01:15:26;;;;;;;;;2.67;2.67;;;;;14.57;72.14;100848.84;5056464;28;45465;-69
2023/01/02 01:17:52;;;;;;;;;5.67;4.00;;;;;14.55;72.49;100855.91;5058669;28;45532;-67
2023/01/02 01:20:18;;;;;;;;;4.33;3.00;;;;;14.48;72.83;100848.94;5037830;28;45509;-67
2023/01/02 01:22:43;;;;;;;;;5.67;3.00;;;;;14.45;73.36;100846.34;5036972;28;45790;-67
2023/01/02 01:25:09;;;;;;;;;5.00;3.00;;;;;14.48;73.78;100871.78;5055414;28;46134;-64
2023/01/02 01:27:35;;;;;;;;;5.00;3.33;;;;;14.45;73.24;100864.78;5058614;28;45383;-64
2023/01/02 01:30:00;;;;;;;;;3.00;3.00;;;;;14.48;73.87;100875.28;5055279;28;45584;-65
2023/01/02 01:32:27;;;;;;;;;2.67;2.67;;;;;14.47;73.22;100872.66;5041685;28;45648;-64
2023/01/02 01:34:53;;;;;;;;;6.00;2.33;;;;;14.46;73.14;100858.59;5055343;28;45429;-66
2023/01/02 01:37:19;;;;;;;;;2.33;2.33;;;;;14.44;73.19;100857.75;5051514;28;45788;-67
2023/01/02 01:39:44;;;;;;;;;3.67;2.67;;;;;14.46;73.60;100855.09;5052965;28;45472;-68
2023/01/02 01:42:13;;;;;;;;;6.00;2.00;;;;;14.47;73.67;100865.59;5055853;28;45505;-69
2023/01/02 01:44:44;;;;;;;;;3.00;3.00;;;;;14.40;74.25;100853.41;5036492;28;48042;-66
2023/01/02 01:47:21;;;;;;;;;5.00;2.00;;;;;14.31;74.54;100866.72;5054214;28;45945;-68
2023/01/02 11:04:41;;;;;;;;;5.50;2.75;;;;;10.99;88.37;101602.00;4990050;27;46065;-67
2023/01/02 11:07:24;;;;;;;;;2.67;2.67;;;;;11.21;87.74;101584.81;4983920;27;45999;-66
2023/01/02 11:09:55;;;;;;;;;5.00;4.00;;;;;11.41;87.11;101590.28;5000966;27;45568;-66
2023/01/02 11:12:21;;;;;;;;;3.50;3.50;;;;;11.56;85.54;101569.50;4990362;27;45559;-67
2023/01/02 11:14:46;;;;;;;;;8.25;4.25;;;;;11.82;85.25;101587.28;4990735;27;45488;-68
2023/01/02 11:17:20;;;;;;;;;8.00;6.75;;;;;12.03;83.60;101599.75;4989687;27;45475;-66
2023/01/02 11:19:48;;;;;;;;;5.67;5.00;;;;;12.12;82.97;101605.09;4987224;27;45651;-68
2023/01/02 11:22:17;;;;;;;;;5.67;3.67;;;;;12.30;82.45;101609.66;4987259;28;45524;-66
2023/01/02 11:25:05;;;;;;;;;5.67;5.67;;;;;12.46;82.00;101614.16;4986771;27;46627;-67
2023/01/02 11:27:42;;;;;;;;;6.00;5.33;;;;;12.47;80.84;101599.28;4987590;28;45633;-66
2023/01/02 11:30:22;;;;;;;;;8.00;6.33;;;;;12.68;80.30;101598.56;4989146;27;45378;-66
2023/01/02 11:33:15;;;;;;;;;8.33;4.67;;;;;12.90;78.74;101589.06;4986793;27;45579;-67
2023/01/02 11:35:49;;;;;;;;;5.00;4.00;;;;;13.11;78.08;101593.56;4986357;28;45451;-66
2023/01/02 11:38:21;;;;;;;;;4.00;3.00;;;;;13.24;77.38;101598.03;4987690;28;45377;-66
2023/01/02 11:40:53;;;;;;;;;2.67;2.00;;;;;13.34;76.93;101607.75;4990718;28;45341;-68
2023/01/02 11:46:31;;;;;;;;;5.33;1.00;;;;;13.42;76.11;101607.78;4990854;28;45833;-65
2023/01/02 11:49:19;;;;;;;;;1.00;1.00;;;;;13.70;75.28;101615.78;4989092;27;45452;-66
2023/01/02 11:51:53;;;;;;;;;1.00;1.00;;;;;13.92;73.74;101617.59;4986275;27;45555;-65
2023/01/02 11:54:24;;;;;;;;;3.00;2.00;;;;;13.88;72.33;101601.75;4989918;28;45428;-66
2023/01/02 11:56:51;;;;;;;;;1.00;1.00;;;;;14.04;72.16;101621.13;4986171;27;46224;-67
2023/01/02 11:59:19;;;;;;;;;2.00;2.00;;;;;14.19;71.32;101615.91;4987271;28;45521;-65
2023/01/02 12:02:14;;;;;;;;;1.00;1.00;;;;;14.44;70.65;101629.94;4986856;28;45413;-65
2023/01/02 12:04:39;;;;;;;;;4.00;1.33;;;;;14.53;69.27;101642.25;5004633;27;45604;-67
2023/01/02 12:07:33;;;;;;;;;1.33;1.00;;;;;14.60;68.97;101639.66;5004767;27;47766;-66
2023/01/02 12:10:10;;;;;;;;;2.00;2.00;;;;;14.57;68.92;101641.44;4997613;27;45425;-64
2023/01/02 12:12:54;;;;;;;;;1.00;1.00;;;;;14.67;69.49;101642.28;5005480;27;45330;-64
2023/01/02 12:15:28;;;;;;;;;1.00;1.00;;;;;14.74;68.33;101655.47;4994858;27;45585;-66
2023/01/02 12:18:17;;;;;;;;;1.00;1.00;;;;;14.74;67.54;101644.91;4992198;27;45389;-64
2023/01/02 12:21:01;;;;;;;;;2.33;1.00;;;;;14.69;67.78;101640.50;4992811;27;45332;-65
2023/01/02 12:23:37;;;;;;;;;3.67;2.00;;;;;14.83;66.66;101641.41;4962803;27;45487;-64
2023/01/02 12:26:09;;;;;;;;;3.00;3.00;;;;;14.76;65.76;101653.72;4992460;27;45489;-65
2023/01/02 12:28:53;;;;;;;;;2.33;2.00;;;;;14.82;66.01;101645.78;4992165;27;45559;-66
2023/01/02 12:31:28;;;;;;;;;1.33;1.00;;;;;15.03;65.58;101641.38;4992010;27;45286;-66
2023/01/02 12:34:16;;;;;;;;;1.00;1.00;;;;;15.24;65.20;101651.88;4992657;27;45415;-66
2023/01/02 12:36:47;;;;;;;;;0.00;0.00;;;;;15.22;63.97;101637.78;5040686;27;45615;-65
2023/01/02 12:39:40;;;;;;;;;1.00;1.00;;;;;15.23;64.38;101651.84;4992457;27;45862;-64
2023/01/02 12:42:24;;;;;;;;;2.00;0.67;;;;;15.19;64.13;101655.41;4995436;27;45418;-68
2023/01/02 12:44:54;;;;;;;;;1.00;1.00;;;;;15.15;64.17;101643.97;4992515;27;45507;-65
2023/01/02 12:47:41;;;;;;;;;0.67;0.00;;;;;15.14;62.16;101665.06;4992234;27;45310;-65
2023/01/02 12:50:25;;;;;;;;;2.00;1.00;;;;;15.11;62.92;101660.69;4992192;27;45331;-67
2023/01/02 12:53:09;;;;;;;;;2.00;0.00;;;;;14.98;62.55;101666.88;4990307;27;45748;-66
2023/01/02 12:55:57;;;;;;;;;3.33;2.00;;;;;14.91;62.60;101679.19;4974174;27;45784;-67
2023/01/02 12:58:45;;;;;;;;;1.33;1.00;;;;;14.75;63.30;101678.31;4991915;27;45757;-68
2023/01/02 13:01:40;;;;;;;;;0.00;0.00;;;;;14.58;62.90;101691.50;4995537;27;45648;-67
2023/01/02 13:04:30;;;;;;;;;0.33;0.33;;;;;14.41;62.94;101683.53;4991725;27;45440;-68
2023/01/02 13:07:11;;;;;;;;;0.00;0.00;;;;;14.41;62.78;101680.03;4995817;27;45369;-66
2023/01/02 13:09:40;;;;;;;;;0.00;0.00;;;;;14.36;61.92;101673.88;4996728;27;45426;-67
2023/01/02 13:12:15;;;;;;;;;0.00;0.00;;;;;14.45;62.30;101694.97;4993213;27;47790;-67
2023/01/02 13:14:59;;;;;;;;;1.00;0.00;;;;;14.30;62.15;101677.38;4992063;27;45574;-67
2023/01/02 13:17:28;;;;;;;;;0.00;0.00;;;;;14.30;62.58;101687.91;4991584;27;45327;-67
2023/01/02 13:20:09;;;;;;;;;1.00;1.00;;;;;14.23;62.42;101693.16;4992164;27;45381;-68
2023/01/02 13:23:04;;;;;;;;;0.67;0.00;;;;;14.17;62.79;101704.59;4991456;27;45381;-66
2023/01/02 13:25:31;;;;;;;;;1.33;1.00;;;;;14.11;62.45;101705.44;4991149;27;45432;-67
2023/01/02 13:27:59;;;;;;;;;1.33;0.67;;;;;14.14;62.68;101701.91;4994497;27;45300;-68
2023/01/02 13:30:33;;;;;;;;;0.67;0.67;;;;;14.18;62.42;101708.97;4978884;27;45421;-69
2023/01/02 13:33:01;;;;;;;;;2.00;0.00;;;;;14.16;62.86;101705.44;4994632;27;46123;-67
2023/01/02 13:35:32;;;;;;;;;1.33;1.33;;;;;14.09;62.28;101703.66;4992106;27;45650;-67
2023/01/02 13:38:00;;;;;;;;;0.67;0.67;;;;;14.08;62.36;101708.06;4991601;27;45354;-66
2023/01/02 13:40:32;;;;;;;;;1.00;0.67;;;;;14.00;62.04;101697.50;4991463;27;45675;-69
2023/01/02 13:43:04;;;;;;;;;2.00;1.00;;;;;14.00;61.93;101705.41;5006783;27;46251;-66
2023/01/02 13:45:41;;;;;;;;;1.00;0.67;;;;;14.08;62.19;101729.13;4991731;27;45634;-66
2023/01/02 13:48:19;;;;;;;;;0.33;0.33;;;;;13.94;62.32;101713.28;4991695;27;45455;-67
2023/01/02 13:50:45;;;;;;;;;4.00;0.00;;;;;13.96;62.72;101731.72;4992061;27;45488;-66
2023/01/02 13:53:10;;;;;;;;;3.67;0.33;;;;;13.88;62.51;101721.19;4994338;27;45569;-65
2023/01/02 13:55:38;;;;;;;;;0.00;0.00;;;;;13.84;62.49;101735.19;4991395;27;45713;-67
2023/01/02 13:58:16;;;;;;;;;0.67;0.00;;;;;13.79;62.76;101727.28;4993369;27;45314;-66
2023/01/02 14:00:50;;;;;;;;;0.00;0.00;;;;;13.78;62.19;101737.78;4993080;27;45414;-65
2023/01/02 14:03:26;;;;;;;;;1.00;1.00;;;;;13.72;63.06;101735.16;4990455;27;45565;-65
2023/01/02 14:05:58;;;;;;;;;0.00;0.00;;;;;13.71;62.89;101738.63;4995328;27;45425;-66
2023/01/02 14:08:30;;;;;;;;;1.00;1.00;;;;;13.56;61.11;101723.63;4991979;27;45461;-66
2023/01/02 14:11:07;;;;;;;;;1.00;0.00;;;;;13.62;60.95;101744.75;4972831;27;45801;-64
2023/01/02 14:13:41;;;;;;;;;0.00;0.00;;;;;13.49;61.54;101735.88;4975643;27;47617;-67
2023/01/02 14:16:22;;;;;;;;;0.00;0.00;;;;;13.62;60.86;101750.00;4991735;27;45879;-66
2023/01/02 14:19:12;;;;;;;;;0.00;0.00;;;;;13.74;60.87;101762.38;4991580;27;45711;-68
2023/01/02 14:21:58;;;;;;;;;0.33;0.00;;;;;13.79;60.16;101752.72;4989555;27;45646;-68
2023/01/02 14:24:48;;;;;;;;;2.00;0.67;;;;;13.77;60.24;101767.63;4988089;27;47612;-67
2023/01/02 14:27:14;;;;;;;;;1.33;0.33;;;;;13.68;60.38;101767.59;5042301;27;46983;-68
2023/01/02 14:30:07;;;;;;;;;0.33;0.33;;;;;13.30;60.85;101721.72;5012528;27;45534;-64
2023/01/02 14:32:43;;;;;;;;;3.00;0.00;;;;;13.51;60.61;101776.25;4990216;27;45472;-68
2023/01/02 14:35:14;;;;;;;;;0.00;0.00;;;;;13.49;62.14;101777.13;4990160;27;45709;-66
2023/01/02 14:38:08;;;;;;;;;0.00;0.00;;;;;13.43;60.62;101766.53;4990610;27;45712;-66
2023/01/02 14:40:42;;;;;;;;;0.33;0.00;;;;;13.33;60.60;101755.06;4994172;27;45434;-67
2023/01/02 14:43:31;;;;;;;;;0.33;0.33;;;;;13.44;60.91;101787.59;4991209;27;45413;-67
2023/01/02 14:46:25;;;;;;;;;0.00;0.00;;;;;13.31;60.34;101778.75;4992084;27;45655;-69
2023/01/02 14:49:02;;;;;;;;;1.00;0.33;;;;;13.40;59.57;101798.09;4994403;27;45505;-66
2023/01/02 14:51:36;;;;;;;;;2.00;0.00;;;;;13.33;59.79;101797.16;4987472;27;46052;-66
2023/01/02 14:54:28;;;;;;;;;0.00;0.00;;;;;13.28;58.86;101805.03;4988998;27;45617;-66
2023/01/02 14:57:34;;;;;;;;;0.00;0.00;;;;;13.27;58.16;101815.53;4972203;27;46453;-67
2023/01/02 15:00:13;;;;;;;;;0.00;0.00;;;;;13.22;58.87;101814.63;4972682;27;45507;-64
2023/01/02 15:02:43;;;;;;;;;0.00;0.00;;;;;13.25;58.89;101826.03;4990638;27;45461;-68
2023/01/02 15:05:16;;;;;;;;;1.67;0.00;;;;;13.23;58.12;101827.75;4991002;27;45558;-66
2023/01/02 15:07:51;;;;;;;;;1.33;0.00;;;;;13.26;58.35;101842.69;4992577;27;48508;-67
2023/01/02 15:10:19;;;;;;;;;1.00;1.00;;;;;13.24;58.79;101847.94;4993145;27;45537;-66
2023/01/02 15:13:06;;;;;;;;;4.67;0.00;;;;;13.13;58.86;101834.69;4993340;27;45393;-67
2023/01/02 15:15:42;;;;;;;;;1.00;1.00;;;;;13.15;58.58;101859.25;4988952;27;45579;-67
2023/01/02 15:18:20;;;;;;;;;1.33;1.00;;;;;13.12;59.31;101853.97;4989079;27;45482;-67
2023/01/02 15:20:53;;;;;;;;;1.67;1.67;;;;;13.10;58.64;101857.47;4972810;28;45569;-66
2023/01/02 15:23:25;;;;;;;;;0.00;0.00;;;;;12.92;58.54;101839.75;4989417;27;45569;-65
2023/01/02 15:25:53;;;;;;;;;0.00;0.00;;;;;13.01;59.21;101860.88;4992579;27;45443;-66
2023/01/02 15:28:30;;;;;;;;;2.00;0.00;;;;;12.92;58.71;101853.78;4992049;27;46242;-66
2023/01/02 15:31:02;;;;;;;;;0.00;0.00;;;;;12.93;58.81;101860.81;4993790;27;45431;-69
2023/01/02 15:33:32;;;;;;;;;0.00;0.00;;;;;12.94;59.42;101866.94;4992826;28;45449;-67
2023/01/02 15:36:05;;;;;;;;;1.33;0.00;;;;;12.96;59.32;101866.97;4990181;27;45376;-68
2023/01/02 15:38:31;;;;;;;;;1.67;1.00;;;;;12.99;58.90;101873.13;4989334;27;46384;-67
2023/01/02 15:40:56;;;;;;;;;0.33;0.33;;;;;12.94;59.26;101864.31;4989195;27;45958;-66
2023/01/02 15:46:10;;;;;;;;;1.00;1.00;;;;;12.90;59.93;101873.91;4989697;27;45780;-63
2023/01/02 15:48:40;;;;;;;;;1.00;1.00;;;;;12.90;59.33;101881.78;4989375;27;46328;-63
2023/01/02 15:51:14;;;;;;;;;1.00;0.00;;;;;12.82;58.90;101874.72;4974479;27;46214;-62
2023/01/02 15:53:44;;;;;;;;;2.00;1.00;;;;;12.88;58.86;101882.66;4992787;27;45507;-65
2023/01/02 15:56:39;;;;;;;;;0.00;0.00;;;;;12.84;59.09;101881.75;4996572;27;45452;-65
2023/01/02 15:59:33;;;;;;;;;0.00;0.00;;;;;12.83;59.55;101898.38;4994211;27;47859;-64
2023/01/02 16:01:58;;;;;;;;;1.00;0.00;;;;;12.77;59.03;101892.19;4992684;27;45446;-67
2023/01/02 16:04:26;;;;;;;;;0.00;0.00;;;;;12.76;58.32;101895.66;4992517;27;45570;-68
2023/01/02 16:06:53;;;;;;;;;1.67;0.33;;;;;12.75;58.40;101907.94;4974859;28;45507;-64
2023/01/02 16:09:26;;;;;;;;;0.00;0.00;;;;;12.72;59.28;101908.78;4992463;27;46215;-63
2023/01/02 16:11:56;;;;;;;;;0.00;0.00;;;;;12.66;59.04;101903.44;4992228;27;45390;-63
2023/01/02 16:14:54;;;;;;;;;2.00;0.67;;;;;12.67;58.82;101910.47;4978096;27;45279;-64
2023/01/02 16:17:38;;;;;;;;;0.33;0.33;;;;;12.59;59.94;101904.22;4994655;27;45374;-66
2023/01/02 16:20:08;;;;;;;;;0.67;0.00;;;;;12.62;59.39;101920.03;4992325;27;45478;-64
2023/01/02 16:22:57;;;;;;;;;0.33;0.33;;;;;12.61;59.87;101923.53;4991047;27;45601;-64
2023/01/02 16:25:31;;;;;;;;;1.00;1.00;;;;;12.57;59.81;101920.84;4992693;27;45448;-65
2023/01/02 16:27:57;;;;;;;;;2.00;0.33;;;;;12.59;59.84;101927.88;4992260;27;45564;-64
2023/01/02 16:30:29;;;;;;;;;1.00;1.00;;;;;12.56;60.34;101934.84;4992150;27;46254;-64
2023/01/02 16:32:55;;;;;;;;;0.00;0.00;;;;;12.52;60.72;101944.44;4995127;27;45500;-64
2023/01/02 16:35:28;;;;;;;;;0.00;0.00;;;;;12.47;61.22;101947.00;4992668;28;45513;-64
2023/01/02 16:37:58;;;;;;;;;1.67;1.67;;;;;12.42;61.37;101953.06;4978987;28;45626;-65
2023/01/02 16:40:24;;;;;;;;;3.00;1.00;;;;;12.40;60.72;101947.78;4996423;27;46049;-66
2023/01/02 16:43:01;;;;;;;;;1.33;1.33;;;;;12.27;61.12;101946.72;4995324;27;45386;-65
2023/01/02 16:45:31;;;;;;;;;4.00;2.67;;;;;12.15;61.66;101936.06;4993308;27;45492;-65
2023/01/02 16:47:57;;;;;;;;;1.67;1.67;;;;;12.18;61.89;101945.72;4992598;27;45576;-65
2023/01/02 16:50:25;;;;;;;;;2.67;2.00;;;;;12.22;61.57;101951.03;4995306;27;46402;-66
2023/01/02 16:52:56;;;;;;;;;1.00;1.00;;;;;12.25;61.89;101960.72;4990699;27;45703;-67
2023/01/02 16:55:22;;;;;;;;;2.00;2.00;;;;;12.22;62.04;101964.16;4976119;27;45382;-66
2023/01/02 16:57:50;;;;;;;;;2.00;2.00;;;;;12.17;62.33;101955.34;4993942;27;45355;-65
2023/01/02 17:00:17;;;;;;;;;3.00;2.00;;;;;12.20;61.98;101967.63;4992365;27;45484;-67
2023/01/02 17:02:44;;;;;;;;;2.00;2.00;;;;;12.12;62.59;101967.50;4992694;27;45325;-67
2023/01/02 17:05:15;;;;;;;;;5.00;1.00;;;;;12.18;63.05;101985.13;4992207;27;45681;-65
2023/01/02 17:07:41;;;;;;;;;4.00;3.00;;;;;12.19;63.01;101992.13;4993376;27;45344;-63
2023/01/02 17:10:07;;;;;;;;;3.33;2.00;;;;;12.15;63.03;101982.41;4992528;27;45374;-67
2023/01/02 17:12:35;;;;;;;;;1.33;1.00;;;;;12.13;63.17;101992.91;4973844;27;45753;-65
2023/01/02 17:15:01;;;;;;;;;7.33;4.00;;;;;12.06;63.45;101976.19;4991797;27;45512;-65
2023/01/02 17:17:27;;;;;;;;;6.33;5.00;;;;;12.12;63.33;101995.50;4995843;27;45508;-66
2023/01/02 17:19:52;;;;;;;;;3.00;3.00;;;;;12.04;63.62;101983.16;4991380;27;47647;-66
2023/01/02 17:22:18;;;;;;;;;3.00;3.00;;;;;12.13;63.52;101999.94;4990029;27;45421;-66
2023/01/02 17:24:44;;;;;;;;;2.00;2.00;;;;;12.14;63.92;102002.56;4994031;27;45500;-66
2023/01/02 17:27:09;;;;;;;;;3.00;2.00;;;;;12.14;63.59;102002.56;4978311;28;45516;-66
2023/01/02 17:29:35;;;;;;;;;4.00;2.00;;;;;12.15;64.06;102009.59;4974457;27;46391;-64
2023/01/02 17:32:00;;;;;;;;;1.00;1.00;;;;;12.10;63.96;102011.22;4991208;27;45570;-65
2023/01/02 17:34:26;;;;;;;;;4.00;1.00;;;;;12.12;64.25;102013.91;4973957;28;45358;-65
2023/01/02 17:36:52;;;;;;;;;3.33;3.00;;;;;12.00;64.60;102002.31;4993610;27;45314;-67
2023/01/02 17:39:17;;;;;;;;;4.33;1.33;;;;;12.04;64.87;102016.41;4995995;27;45493;-67
2023/01/02 17:41:43;;;;;;;;;2.00;2.00;;;;;11.99;64.90;102012.81;4992751;27;45507;-70
2023/01/02 17:44:09;;;;;;;;;2.00;2.00;;;;;12.03;64.69;102033.91;4990955;27;45455;-67
2023/01/02 17:46:34;;;;;;;;;3.33;3.33;;;;;12.02;65.47;102034.75;4991547;27;45548;-67
2023/01/02 17:49:01;;;;;;;;;7.33;4.00;;;;;11.98;65.40;102032.94;4990935;27;45991;-65
2023/01/02 17:51:27;;;;;;;;;3.00;3.00;;;;;11.91;65.81;102032.78;4990818;27;45832;-65
2023/01/02 17:53:53;;;;;;;;;3.67;3.67;;;;;11.87;65.31;102021.38;4991130;27;45429;-64
2023/01/02 17:56:19;;;;;;;;;7.33;4.67;;;;;11.88;65.44;102045.00;5029321;27;45817;-66
2023/01/02 17:58:44;;;;;;;;;5.67;5.67;;;;;11.88;65.51;102044.13;5026527;27;46529;-65
2023/01/02 18:01:16;;;;;;;;;6.33;5.00;;;;;11.88;65.97;102052.00;4993115;27;45896;-65
2023/01/02 18:03:41;;;;;;;;;7.50;7.00;;;;;11.77;65.87;102033.44;5022280;27;46012;-65
2023/01/02 18:06:07;;;;;;;;;5.75;5.25;;;;;11.80;66.16;102051.84;5011032;27;45491;-65
2023/01/02 18:08:33;;;;;;;;;10.75;6.25;;;;;11.80;66.02;102059.72;4971994;28;45607;-64
2023/01/02 18:10:58;;;;;;;;;8.50;5.50;;;;;11.70;65.90;102060.41;5047568;27;45504;-66
2023/01/02 18:13:27;;;;;;;;;9.25;7.25;;;;;11.73;66.36;102059.59;5067666;27;45559;-67
2023/01/02 18:15:53;;;;;;;;;9.50;7.25;;;;;11.66;66.40;102055.97;5060887;27;45444;-67
2023/01/02 18:18:22;;;;;;;;;11.75;10.75;;;;;11.76;66.17;102076.25;5032786;27;45682;-65
2023/01/02 18:20:48;;;;;;;;;10.50;8.00;;;;;11.79;67.16;102076.34;5002505;27;45597;-67
2023/01/02 18:23:14;;;;;;;;;7.33;6.33;;;;;11.71;66.54;102058.66;4973204;27;46223;-65
2023/01/02 18:25:40;;;;;;;;;9.00;7.25;;;;;11.81;66.13;102068.47;4988834;27;46131;-65
2023/01/02 18:28:27;;;;;;;;;12.50;7.75;;;;;11.74;65.77;102064.84;4991293;27;45921;-66
2023/01/02 18:30:58;;;;;;;;;13.00;9.25;;;;;11.85;66.08;102083.44;4998288;27;45504;-66
2023/01/02 18:33:26;;;;;;;;;12.50;7.75;;;;;11.83;65.73;102087.75;4975770;27;45567;-67
2023/01/02 18:35:57;;;;;;;;;9.25;9.25;;;;;11.82;65.56;102086.00;5014046;27;45479;-64
2023/01/02 18:38:38;;;;;;;;;12.75;8.75;;;;;11.78;64.66;102092.94;4990654;27;45770;-66
2023/01/02 18:41:25;;;;;;;;;8.25;7.75;;;;;11.68;65.46;102086.63;5043658;27;45515;-67
2023/01/02 18:43:59;;;;;;;;;10.75;9.00;;;;;11.75;65.47;102100.75;4989802;27;45781;-66
2023/01/02 18:46:35;;;;;;;;;8.00;7.75;;;;;11.73;65.42;102102.47;5029114;27;45531;-67
2023/01/02 18:49:27;;;;;;;;;6.50;6.50;;;;;11.73;65.34;102110.34;5036124;27;45766;-65
2023/01/02 18:52:24;;;;;;;;;8.00;8.00;;;;;11.61;65.24;102102.22;4988511;27;45263;-66
2023/01/02 18:54:58;;;;;;;;;11.50;8.00;;;;;11.57;65.70;102108.25;4988764;27;45349;-67
2023/01/02 18:57:29;;;;;;;;;10.75;8.50;;;;;11.52;66.13;102118.66;5028171;27;45909;-67
2023/01/02 19:00:13;;;;;;;;;10.50;9.75;;;;;11.45;66.22;102109.78;5025709;27;46794;-67
2023/01/02 19:03:00;;;;;;;;;10.25;8.25;;;;;11.52;66.86;102121.28;4995596;27;45544;-65
2023/01/02 19:05:35;;;;;;;;;10.50;9.75;;;;;11.49;66.68;102125.59;4995138;27;45387;-65
2023/01/02 19:08:06;;;;;;;;;9.75;7.00;;;;;11.51;66.53;102122.16;5056037;27;45607;-65
2023/01/02 19:13:00;;;;;;;;;14.25;11.50;;;;;11.43;66.10;102121.97;4988752;27;45536;-65
2023/01/02 19:13:44;;;;;;;;;10.00;10.00;;;;;11.44;66.79;102129.00;4990203;27;45547;-63
2023/01/02 19:16:13;;;;;;;;;10.75;9.75;;;;;11.48;66.23;102121.19;5024717;27;45502;-65
2023/01/02 19:18:47;;;;;;;;;8.00;7.75;;;;;11.40;66.66;102121.03;4991845;27;45348;-64
2023/01/02 19:21:17;;;;;;;;;8.00;7.50;;;;;11.46;66.79;102135.19;4964784;27;45573;-65
2023/01/02 19:23:56;;;;;;;;;9.50;8.25;;;;;11.51;66.44;102143.16;4994071;27;46271;-66
2023/01/02 19:26:31;;;;;;;;;6.75;6.25;;;;;11.48;66.54;102139.56;5033778;27;45914;-65
2023/01/02 19:29:06;;;;;;;;;14.50;11.25;;;;;11.52;66.61;102142.28;5015319;27;45350;-65
2023/01/02 19:31:58;;;;;;;;;11.75;10.00;;;;;11.54;67.26;102137.94;5029419;27;46627;-63
2023/01/02 19:34:39;;;;;;;;;8.75;7.00;;;;;11.54;66.18;102153.69;5067486;27;45444;-64
2023/01/02 19:37:11;;;;;;;;;14.75;11.00;;;;;11.51;66.72;102153.66;5004622;27;45747;-66
2023/01/02 19:39:41;;;;;;;;;12.00;9.75;;;;;11.44;67.15;102152.63;4974922;28;46036;-65
2023/01/02 19:42:23;;;;;;;;;10.50;9.50;;;;;11.39;66.97;102154.28;4993419;27;46444;-68
2023/01/02 19:44:52;;;;;;;;;12.00;11.50;;;;;11.36;67.18;102162.06;4974524;27;45550;-65
2023/01/02 19:47:20;;;;;;;;;14.50;13.50;;;;;11.37;66.82;102158.59;5033003;27;46086;-66
2023/01/02 19:49:47;;;;;;;;;13.75;11.75;;;;;11.30;67.11;102169.81;4994244;27;45458;-65
2023/01/02 19:52:14;;;;;;;;;13.50;12.00;;;;;11.22;67.43;102153.91;4998934;27;46163;-65
2023/01/02 19:54:41;;;;;;;;;20.00;14.50;;;;;11.21;67.34;102160.00;5043129;27;45522;-67
2023/01/02 19:57:09;;;;;;;;;18.00;13.00;;;;;10.99;67.88;102156.00;4993201;27;45832;-67
2023/01/02 19:59:35;;;;;;;;;19.25;15.25;;;;;10.97;68.08;102168.19;5018137;27;45714;-66
2023/01/02 20:02:01;;;;;;;;;16.50;12.50;;;;;10.95;68.24;102162.03;5048136;27;45532;-67
2023/01/02 20:04:27;;;;;;;;;16.25;15.50;;;;;10.88;68.24;102165.34;5030399;27;45515;-67
2023/01/02 20:06:53;;;;;;;;;15.75;15.00;;;;;10.81;68.87;102156.44;4978610;28;45443;-67
2023/01/02 20:09:23;;;;;;;;;19.50;17.00;;;;;10.73;68.86;102139.66;4994526;27;45456;-66
2023/01/02 20:14:33;;;;;;;;;18.50;13.75;;;;;10.89;68.70;102153.13;5009733;27;45402;-64
2023/01/02 20:16:59;;;;;;;;;13.50;13.00;;;;;10.84;68.92;102147.78;5031070;27;45670;-66
2023/01/02 20:19:27;;;;;;;;;17.25;14.00;;;;;10.74;68.90;102149.28;5035915;27;46462;-65
2023/01/02 20:21:53;;;;;;;;;20.75;15.75;;;;;10.73;69.21;102150.16;5019208;27;46689;-63
2023/01/02 20:24:18;;;;;;;;;20.25;19.00;;;;;10.67;69.65;102154.34;4999213;27;46016;-66
2023/01/02 20:26:44;;;;;;;;;19.00;13.50;;;;;10.69;69.56;102152.66;4995620;27;45630;-66
2023/01/02 20:29:09;;;;;;;;;18.25;15.75;;;;;10.60;69.47;102140.22;4993848;27;46430;-65
2023/01/02 20:31:35;;;;;;;;;18.75;15.75;;;;;10.69;69.75;102150.03;5008567;27;46111;-66
2023/01/02 20:34:00;;;;;;;;;16.00;14.25;;;;;10.72;69.06;102144.88;5027621;27;46523;-66
2023/01/02 20:36:26;;;;;;;;;17.25;16.25;;;;;10.71;69.44;102149.22;4989208;27;45503;-66
2023/01/02 20:38:52;;;;;;;;;19.00;15.75;;;;;10.65;69.90;102156.03;5005478;27;45424;-66
2023/01/02 20:41:18;;;;;;;;;14.75;12.00;;;;;10.63;69.54;102148.16;4994810;27;46007;-64
2023/01/02 20:43:43;;;;;;;;;16.00;13.50;;;;;10.36;69.83;102099.47;5026273;27;45600;-65
2023/01/02 20:46:09;;;;;;;;;15.25;13.75;;;;;10.64;70.18;102144.69;5054403;27;45566;-65
2023/01/02 20:48:34;;;;;;;;;14.75;13.00;;;;;10.70;70.18;102151.78;4997488;27;45685;-67
2023/01/02 20:51:00;;;;;;;;;14.00;12.00;;;;;10.70;69.57;102154.41;4993895;27;46009;-67
2023/01/02 20:53:26;;;;;;;;;14.00;11.25;;;;;10.73;69.71;102151.91;4993545;27;45611;-65
2023/01/02 20:55:52;;;;;;;;;12.00;10.75;;;;;10.75;70.21;102148.47;5008993;27;45528;-66
2023/01/02 20:58:18;;;;;;;;;11.25;9.00;;;;;10.75;69.86;102148.47;4961088;27;45599;-67
2023/01/02 21:00:43;;;;;;;;;11.00;9.00;;;;;10.71;69.46;102143.09;5029909;27;46207;-66
2023/01/02 21:03:09;;;;;;;;;10.50;9.00;;;;;10.91;69.98;102182.88;5006697;27;45628;-66
2023/01/02 21:05:35;;;;;;;;;10.00;8.25;;;;;10.92;69.91;102169.81;5010581;27;45505;-64
2023/01/02 21:08:01;;;;;;;;;10.75;9.00;;;;;10.97;69.88;102176.06;5015301;27;45391;-65